Time;durP1;ratioP1;P1;durP2;ratioP2;P2;SDS_P1;SDS_P2;PMS_P1;PMS_P2;Temp;Humidity;BMP_temperature;BMP_pressure;BME280_temperature;BME280_humidity;BME280_pressure;Samples;Min_cycle;Max_cycle;Signal;HPM_P1;HPM_P2
2022/03/26 00:00:20;;;;;;;122.90;57.70;;;5.20;99.90;;;;;;5008789;28;20056;-71
2022/03/26 00:02:46;;;;;;;134.25;61.03;;;5.20;99.90;;;;;;5016984;28;20046;-71
2022/03/26 00:05:12;;;;;;;122.47;57.83;;;5.10;99.90;;;;;;5025060;28;20554;-69
2022/03/26 00:07:37;;;;;;;124.82;62.65;;;5.20;99.90;;;;;;5008723;28;20128;-69
2022/03/26 00:10:07;;;;;;;115.15;57.75;;;5.10;99.90;;;;;;5012811;28;20045;-69
2022/03/26 00:12:32;;;;;;;125.00;62.03;;;5.10;99.90;;;;;;5008882;28;20674;-69
2022/03/26 00:14:58;;;;;;;131.50;63.45;;;5.10;99.90;;;;;;5017307;28;20045;-68
2022/03/26 00:17:25;;;;;;;129.25;61.47;;;5.00;99.90;;;;;;5015114;28;20049;-69
2022/03/26 00:19:51;;;;;;;131.50;62.95;;;5.00;99.90;;;;;;5000429;28;20048;-69
2022/03/26 00:22:17;;;;;;;127.15;62.25;;;5.00;99.90;;;;;;5007771;28;20077;-69
2022/03/26 00:24:42;;;;;;;147.40;66.97;;;5.00;99.90;;;;;;5017763;28;20483;-69
2022/03/26 00:27:08;;;;;;;144.57;67.85;;;4.90;99.90;;;;;;5013311;28;20077;-69
2022/03/26 00:29:34;;;;;;;140.30;68.70;;;4.90;99.90;;;;;;5019416;28;20073;-69
2022/03/26 00:32:00;;;;;;;166.80;74.28;;;4.90;99.90;;;;;;5008839;28;20419;-69
2022/03/26 00:34:25;;;;;;;159.50;72.57;;;4.90;99.90;;;;;;5018408;28;20050;-69
2022/03/26 00:36:51;;;;;;;174.77;75.13;;;4.90;99.90;;;;;;5010860;28;20050;-68
2022/03/26 00:39:17;;;;;;;164.90;77.15;;;4.90;99.90;;;;;;5009135;28;20474;-69
2022/03/26 00:41:42;;;;;;;155.43;75.68;;;4.80;99.90;;;;;;5021268;28;20045;-69
2022/03/26 00:44:08;;;;;;;169.48;77.22;;;4.80;99.90;;;;;;5008192;28;20042;-69
2022/03/26 00:46:34;;;;;;;174.27;83.93;;;4.80;99.90;;;;;;5021465;28;20049;-69
2022/03/26 00:48:59;;;;;;;179.50;83.40;;;4.80;99.90;;;;;;5009486;28;20076;-69
2022/03/26 00:51:25;;;;;;;167.68;81.68;;;4.80;99.90;;;;;;5021138;28;20391;-69
2022/03/26 00:53:52;;;;;;;166.55;78.10;;;4.80;99.90;;;;;;5010607;28;20269;-69
2022/03/26 00:56:18;;;;;;;167.52;82.22;;;4.80;99.90;;;;;;5009059;28;20056;-68
2022/03/26 00:58:45;;;;;;;172.52;82.47;;;4.70;99.90;;;;;;5008606;28;20128;-69
2022/03/26 01:01:11;;;;;;;199.23;89.80;;;4.70;99.90;;;;;;5010495;28;20048;-68
2022/03/26 01:03:37;;;;;;;191.70;87.57;;;4.70;99.90;;;;;;5015389;28;20405;-69
2022/03/26 01:06:04;;;;;;;189.75;86.00;;;4.70;99.90;;;;;;5005530;28;20157;-69
2022/03/26 01:08:31;;;;;;;198.73;88.25;;;4.70;99.90;;;;;;5008299;28;20056;-69
2022/03/26 01:10:58;;;;;;;184.27;85.07;;;4.70;99.90;;;;;;5015006;28;20054;-68
2022/03/26 01:13:25;;;;;;;179.43;85.82;;;4.60;99.90;;;;;;5012034;28;20088;-68
2022/03/26 01:15:51;;;;;;;189.65;85.53;;;4.60;99.90;;;;;;5025148;28;20048;-71
2022/03/26 01:18:18;;;;;;;204.05;92.30;;;4.60;99.90;;;;;;5022422;28;20051;-71
2022/03/26 01:20:43;;;;;;;195.73;93.60;;;4.60;99.90;;;;;;5012406;28;20523;-71
2022/03/26 01:23:09;;;;;;;207.13;95.28;;;4.60;99.90;;;;;;5023967;28;20041;-71
2022/03/26 01:25:36;;;;;;;205.60;97.60;;;4.50;99.90;;;;;;5028367;28;20053;-71
2022/03/26 01:28:01;;;;;;;212.45;97.65;;;4.50;99.90;;;;;;5011906;28;20448;-71
2022/03/26 01:30:27;;;;;;;212.02;97.22;;;4.50;99.90;;;;;;5011083;28;20053;-69
2022/03/26 01:32:53;;;;;;;195.73;93.70;;;4.50;99.90;;;;;;5014935;28;20046;-69
2022/03/26 01:35:19;;;;;;;177.32;87.25;;;4.40;99.90;;;;;;5007719;28;20139;-69
2022/03/26 01:37:44;;;;;;;165.10;80.68;;;4.40;99.90;;;;;;5009436;28;20104;-69
2022/03/26 01:40:11;;;;;;;180.68;81.35;;;4.40;99.90;;;;;;5006349;28;20044;-69
2022/03/26 01:42:36;;;;;;;165.05;79.03;;;4.40;99.90;;;;;;5010710;28;20072;-69
2022/03/26 01:45:03;;;;;;;154.25;79.00;;;4.40;99.90;;;;;;5018485;28;20143;-69
2022/03/26 01:47:29;;;;;;;167.13;80.22;;;4.40;99.90;;;;;;5018144;28;20096;-69
2022/03/26 01:49:54;;;;;;;157.38;77.43;;;4.30;99.90;;;;;;5016863;28;20490;-69
2022/03/26 01:52:20;;;;;;;182.38;80.78;;;4.30;99.90;;;;;;5024356;28;20366;-69
2022/03/26 01:54:48;;;;;;;162.77;75.10;;;4.30;99.90;;;;;;5011987;28;20049;-68
2022/03/26 01:57:14;;;;;;;155.30;74.73;;;4.30;99.90;;;;;;5019140;28;20045;-69
2022/03/26 01:59:41;;;;;;;149.90;73.03;;;4.30;99.90;;;;;;5017446;28;20407;-69
2022/03/26 02:02:07;;;;;;;153.50;70.15;;;4.20;99.90;;;;;;5009325;28;20499;-69
2022/03/26 02:04:36;;;;;;;155.07;67.72;;;4.20;99.90;;;;;;5013524;28;20124;-69
2022/03/26 02:07:03;;;;;;;138.73;65.13;;;4.20;99.90;;;;;;5023233;28;20038;-69
2022/03/26 02:09:38;;;;;;;149.95;68.82;;;4.20;99.90;;;;;;5014093;28;20049;-69
2022/03/26 02:12:30;;;;;;;157.13;67.88;;;4.10;99.90;;;;;;5020838;28;20573;-69
2022/03/26 02:14:57;;;;;;;162.93;72.13;;;4.10;99.90;;;;;;5015323;28;20041;-69
2022/03/26 02:17:23;;;;;;;175.35;74.30;;;4.00;99.90;;;;;;5013441;28;20046;-69
2022/03/26 02:19:52;;;;;;;153.82;71.55;;;4.00;99.90;;;;;;5008530;28;20049;-69
2022/03/26 02:22:20;;;;;;;174.15;72.85;;;4.00;99.90;;;;;;5007480;28;20551;-70
2022/03/26 02:24:46;;;;;;;152.02;67.40;;;4.00;99.90;;;;;;5017108;28;20100;-70
2022/03/26 02:27:12;;;;;;;135.80;65.78;;;4.00;99.90;;;;;;5017270;28;20050;-70
2022/03/26 02:29:39;;;;;;;145.05;65.30;;;3.90;99.90;;;;;;5017499;28;20564;-70
2022/03/26 02:32:05;;;;;;;147.27;65.25;;;3.90;99.90;;;;;;5016289;28;20133;-69
2022/03/26 02:34:31;;;;;;;181.25;75.05;;;3.90;99.90;;;;;;5023838;28;20100;-69
2022/03/26 02:36:58;;;;;;;157.65;74.15;;;3.90;99.90;;;;;;5009519;28;20518;-69
2022/03/26 02:39:24;;;;;;;171.85;76.55;;;3.80;99.90;;;;;;5021358;28;20149;-69
2022/03/26 02:41:50;;;;;;;175.35;80.03;;;3.80;99.90;;;;;;5019201;28;20141;-69
2022/03/26 02:44:15;;;;;;;166.40;78.00;;;3.80;99.90;;;;;;5017236;28;20103;-69
2022/03/26 02:46:43;;;;;;;181.65;77.05;;;3.70;99.90;;;;;;5014729;28;20455;-69
2022/03/26 02:49:09;;;;;;;162.43;77.45;;;3.70;99.90;;;;;;5010384;28;20450;-69
2022/03/26 02:51:34;;;;;;;167.65;78.65;;;3.70;99.90;;;;;;5009509;28;20057;-69
2022/03/26 02:54:00;;;;;;;160.48;75.75;;;3.70;99.90;;;;;;5010099;28;20085;-69
2022/03/26 02:56:26;;;;;;;159.45;73.47;;;3.60;99.90;;;;;;5009931;28;20033;-69
2022/03/26 02:58:51;;;;;;;154.25;74.65;;;3.60;99.90;;;;;;5017520;28;20124;-69
2022/03/26 03:01:17;;;;;;;172.70;72.50;;;3.60;99.90;;;;;;5016471;28;20053;-69
2022/03/26 03:03:43;;;;;;;157.75;70.20;;;3.60;99.90;;;;;;5010200;28;20077;-69
2022/03/26 03:06:08;;;;;;;164.98;70.97;;;3.60;99.90;;;;;;5008945;28;20046;-69
2022/03/26 03:08:34;;;;;;;147.73;67.40;;;3.60;99.90;;;;;;5021009;28;20907;-69
2022/03/26 03:10:59;;;;;;;151.55;68.95;;;3.60;99.90;;;;;;5009835;28;20045;-69
2022/03/26 03:13:25;;;;;;;156.02;68.97;;;3.60;99.90;;;;;;5010296;28;20053;-69
2022/03/26 03:15:52;;;;;;;157.95;70.88;;;3.60;99.90;;;;;;5017876;28;20487;-69
2022/03/26 03:18:18;;;;;;;153.93;69.82;;;3.50;99.90;;;;;;5015889;28;20557;-69
2022/03/26 03:20:44;;;;;;;140.98;65.78;;;3.60;99.90;;;;;;5010112;28;20038;-69
2022/03/26 03:23:11;;;;;;;142.98;69.93;;;3.50;99.90;;;;;;5021774;28;20044;-69
2022/03/26 03:25:37;;;;;;;162.27;71.50;;;3.50;99.90;;;;;;4996084;28;20046;-69
2022/03/26 03:28:04;;;;;;;156.82;68.78;;;3.50;99.90;;;;;;5004241;28;20046;-69
2022/03/26 03:30:29;;;;;;;155.80;71.43;;;3.40;99.90;;;;;;5009518;28;20446;-69
2022/03/26 03:32:56;;;;;;;162.88;73.03;;;3.50;99.90;;;;;;5001755;28;20045;-69
2022/03/26 03:35:22;;;;;;;149.10;67.70;;;3.40;99.90;;;;;;5020318;28;20050;-69
2022/03/26 03:37:49;;;;;;;147.25;66.88;;;3.40;99.90;;;;;;5012261;28;20068;-69
2022/03/26 03:40:14;;;;;;;145.10;66.28;;;3.30;99.90;;;;;;5011751;28;20042;-69
2022/03/26 03:42:42;;;;;;;141.13;69.28;;;3.30;99.90;;;;;;5009143;28;20542;-70
2022/03/26 03:45:09;;;;;;;162.98;68.95;;;3.30;99.90;;;;;;5008893;28;20042;-69
2022/03/26 03:47:37;;;;;;;135.63;66.30;;;3.30;99.90;;;;;;5007389;28;20054;-69
2022/03/26 03:50:04;;;;;;;157.60;75.35;;;3.20;99.90;;;;;;5009538;28;20124;-68
2022/03/26 03:52:30;;;;;;;145.48;71.97;;;3.20;99.90;;;;;;5009006;28;20045;-69
2022/03/26 03:54:55;;;;;;;158.77;74.80;;;3.20;99.90;;;;;;5019947;28;20096;-69
2022/03/26 03:57:21;;;;;;;160.43;73.05;;;3.10;99.90;;;;;;5015857;28;20506;-69
2022/03/26 03:59:47;;;;;;;168.38;74.50;;;3.20;99.90;;;;;;5018041;28;20041;-69
2022/03/26 04:02:13;;;;;;;181.40;79.95;;;3.20;99.90;;;;;;5011402;28;20053;-69
2022/03/26 04:04:40;;;;;;;176.70;81.05;;;3.20;99.90;;;;;;5010760;28;20042;-70
2022/03/26 04:07:10;;;;;;;161.15;75.25;;;3.20;99.90;;;;;;5020449;28;20108;-71
2022/03/26 04:09:37;;;;;;;168.70;74.10;;;3.20;99.90;;;;;;5009525;28;20656;-69
2022/03/26 04:12:02;;;;;;;172.73;78.43;;;3.20;99.90;;;;;;5014330;28;20045;-69
2022/03/26 04:14:29;;;;;;;182.00;84.07;;;3.10;99.90;;;;;;5018187;28;20411;-69
2022/03/26 04:16:55;;;;;;;186.38;88.45;;;3.10;99.90;;;;;;5018041;28;20435;-69
2022/03/26 04:19:21;;;;;;;192.95;88.60;;;3.20;99.90;;;;;;5013992;28;20049;-69
2022/03/26 04:21:47;;;;;;;213.43;92.78;;;3.10;99.90;;;;;;5009218;28;20045;-69
2022/03/26 04:24:13;;;;;;;200.65;91.38;;;3.20;99.90;;;;;;5013834;28;20063;-69
2022/03/26 04:26:39;;;;;;;199.35;95.30;;;3.10;99.90;;;;;;5010421;28;20646;-69
2022/03/26 04:29:05;;;;;;;199.20;90.53;;;3.10;99.90;;;;;;5009278;28;20078;-69
2022/03/26 04:31:31;;;;;;;185.73;84.28;;;3.10;99.90;;;;;;5008973;28;20049;-69
2022/03/26 04:34:01;;;;;;;176.38;80.30;;;3.00;99.90;;;;;;5007916;28;20121;-69
2022/03/26 04:36:28;;;;;;;159.77;77.85;;;3.10;99.90;;;;;;5021800;28;20058;-69
2022/03/26 04:38:54;;;;;;;147.75;70.82;;;3.00;99.90;;;;;;5008880;28;20042;-69
2022/03/26 04:41:19;;;;;;;181.90;76.28;;;3.00;99.90;;;;;;5007438;28;20454;-70
2022/03/26 04:43:45;;;;;;;179.27;81.57;;;3.00;99.90;;;;;;5016600;28;20049;-69
2022/03/26 04:46:11;;;;;;;168.70;76.05;;;3.00;99.90;;;;;;5011011;28;20212;-69
2022/03/26 04:48:37;;;;;;;188.63;80.30;;;2.90;99.90;;;;;;5012741;28;20046;-69
2022/03/26 04:51:03;;;;;;;211.63;81.72;;;2.90;99.90;;;;;;5014688;28;20466;-69
2022/03/26 04:53:29;;;;;;;203.82;87.22;;;2.90;99.90;;;;;;5024713;28;20041;-69
2022/03/26 04:55:54;;;;;;;237.52;88.63;;;2.90;99.90;;;;;;5014808;28;20046;-69
2022/03/26 04:58:20;;;;;;;223.88;91.05;;;2.90;99.90;;;;;;5011807;28;20049;-69
2022/03/26 05:00:45;;;;;;;230.48;97.15;;;2.80;99.90;;;;;;5014630;28;20480;-69
2022/03/26 05:03:13;;;;;;;227.38;97.28;;;2.80;99.90;;;;;;5005143;28;20052;-69
2022/03/26 05:05:39;;;;;;;219.85;100.90;;;2.80;99.90;;;;;;5009773;28;20050;-69
2022/03/26 05:08:04;;;;;;;254.10;110.95;;;2.80;99.90;;;;;;5024612;28;20405;-69
2022/03/26 05:10:30;;;;;;;256.33;115.75;;;2.80;99.90;;;;;;5013215;28;20444;-69
2022/03/26 05:12:58;;;;;;;263.15;113.43;;;2.80;99.90;;;;;;5009245;28;20096;-69
2022/03/26 05:15:27;;;;;;;249.50;106.20;;;2.80;99.90;;;;;;5015904;28;20092;-69
2022/03/26 05:17:53;;;;;;;;;;;2.80;99.90;;;;;;5027817;28;20445;-69
2022/03/26 05:20:20;;;;;;;228.88;100.25;;;2.70;99.90;;;;;;4991137;28;19926;-69
2022/03/26 05:22:48;;;;;;;237.73;108.45;;;2.70;99.90;;;;;;5010707;28;20050;-69
2022/03/26 05:25:15;;;;;;;235.13;106.50;;;2.70;99.90;;;;;;5025697;28;20049;-69
2022/03/26 05:27:48;;;;;;;237.60;102.05;;;2.70;99.90;;;;;;5014928;28;20061;-69
2022/03/26 05:30:15;;;;;;;231.05;100.28;;;2.70;99.90;;;;;;4999810;28;20119;-69
2022/03/26 05:32:40;;;;;;;222.23;99.32;;;2.70;99.90;;;;;;5012921;28;20054;-69
2022/03/26 05:35:11;;;;;;;219.43;98.05;;;2.70;99.90;;;;;;5024078;28;20049;-69
2022/03/26 05:37:47;;;;;;;230.73;100.10;;;2.80;99.90;;;;;;5025195;28;20045;-69
2022/03/26 05:40:16;;;;;;;226.70;99.10;;;2.70;99.90;;;;;;5014299;28;20054;-69
2022/03/26 05:42:42;;;;;;;;;;;2.70;99.90;;;;;;5011708;28;20048;-69
2022/03/26 05:45:08;;;;;;;221.65;99.72;;;2.70;99.90;;;;;;5011347;28;20004;-69
2022/03/26 05:47:35;;;;;;;216.30;95.90;;;2.70;99.90;;;;;;5011529;28;20046;-69
2022/03/26 05:50:02;;;;;;;212.15;96.10;;;2.80;99.90;;;;;;5020168;28;20054;-69
2022/03/26 05:52:28;;;;;;;187.00;89.38;;;2.80;99.90;;;;;;5015479;28;20410;-69
2022/03/26 05:54:53;;;;;;;181.77;86.00;;;2.90;99.90;;;;;;5021237;28;20121;-69
2022/03/26 05:57:19;;;;;;;193.23;86.13;;;3.00;99.90;;;;;;5010777;28;20121;-69
2022/03/26 05:59:45;;;;;;;190.80;86.60;;;3.00;99.90;;;;;;5021509;28;20068;-69
2022/03/26 06:02:13;;;;;;;208.70;90.20;;;3.10;99.90;;;;;;5011909;28;20044;-70
2022/03/26 06:04:45;;;;;;;181.02;84.82;;;3.10;99.90;;;;;;5014128;28;20049;-69
2022/03/26 06:07:11;;;;;;;200.30;91.00;;;3.20;99.90;;;;;;5025352;28;20077;-69
2022/03/26 06:09:38;;;;;;;210.23;89.85;;;3.30;99.90;;;;;;5004271;28;20058;-69
2022/03/26 06:12:05;;;;;;;201.73;90.88;;;3.40;99.90;;;;;;5012356;28;20061;-69
2022/03/26 06:14:31;;;;;;;197.18;87.38;;;3.50;99.90;;;;;;5021127;28;20407;-70
2022/03/26 06:16:57;;;;;;;184.75;84.32;;;3.70;99.90;;;;;;5012383;28;20145;-70
2022/03/26 06:19:24;;;;;;;187.77;85.80;;;3.80;99.90;;;;;;5019381;28;20044;-70
2022/03/26 06:21:50;;;;;;;206.27;96.47;;;3.90;99.90;;;;;;5018949;28;20045;-69
2022/03/26 06:24:16;;;;;;;200.95;93.88;;;4.00;99.90;;;;;;5023075;28;20068;-69
2022/03/26 06:26:44;;;;;;;223.43;98.90;;;4.10;99.90;;;;;;5021209;28;20042;-69
2022/03/26 06:29:10;;;;;;;249.85;105.43;;;4.20;99.90;;;;;;5006626;28;20529;-69
2022/03/26 06:31:36;;;;;;;247.75;110.95;;;4.30;99.90;;;;;;5009700;28;20047;-69
2022/03/26 06:34:02;;;;;;;265.58;117.47;;;4.40;99.90;;;;;;5011642;28;20620;-70
2022/03/26 06:36:27;;;;;;;258.95;117.80;;;4.50;99.90;;;;;;5020793;28;20132;-69
2022/03/26 06:38:53;;;;;;;290.52;125.75;;;4.60;99.90;;;;;;5017845;28;20133;-69
2022/03/26 06:41:19;;;;;;;295.73;129.90;;;4.70;99.90;;;;;;5017690;28;20464;-69
2022/03/26 06:43:45;;;;;;;303.77;132.55;;;4.80;99.90;;;;;;5004951;28;20054;-69
2022/03/26 06:46:12;;;;;;;304.38;134.82;;;5.00;99.90;;;;;;5009483;28;20586;-69
2022/03/26 06:48:38;;;;;;;277.52;131.15;;;5.10;99.90;;;;;;5000859;28;20089;-69
2022/03/26 06:51:06;;;;;;;301.10;135.25;;;5.30;99.90;;;;;;5007220;28;20096;-69
2022/03/26 06:53:33;;;;;;;295.07;136.30;;;5.40;99.90;;;;;;5014778;28;20044;-69
2022/03/26 06:55:59;;;;;;;310.60;141.02;;;5.50;99.90;;;;;;5013075;28;20272;-69
2022/03/26 06:58:25;;;;;;;302.17;135.30;;;5.70;99.90;;;;;;5020680;28;20048;-69
2022/03/26 07:00:51;;;;;;;316.55;140.98;;;5.90;99.90;;;;;;5014108;28;20095;-69
2022/03/26 07:03:17;;;;;;;293.33;137.45;;;6.00;99.90;;;;;;5008119;28;20570;-69
2022/03/26 07:05:42;;;;;;;291.33;130.20;;;6.20;99.90;;;;;;5008676;28;20120;-69
2022/03/26 07:08:09;;;;;;;305.08;136.48;;;6.50;99.90;;;;;;5008039;28;20833;-69
2022/03/26 07:10:36;;;;;;;279.63;129.85;;;6.80;99.90;;;;;;4999028;28;20058;-69
2022/03/26 07:13:03;;;;;;;286.13;137.23;;;7.10;99.90;;;;;;5006516;28;20096;-69
2022/03/26 07:15:31;;;;;;;272.02;132.00;;;7.40;99.90;;;;;;5007368;28;20463;-69
2022/03/26 07:17:57;;;;;;;276.13;131.32;;;7.70;99.90;;;;;;5018666;28;20052;-69
2022/03/26 07:20:23;;;;;;;262.75;120.38;;;8.00;99.90;;;;;;5010231;28;20049;-70
2022/03/26 07:22:49;;;;;;;270.85;128.70;;;8.30;99.90;;;;;;5009997;28;20042;-70
2022/03/26 07:25:15;;;;;;;265.90;127.40;;;8.60;99.90;;;;;;5006230;28;20204;-69
2022/03/26 07:27:41;;;;;;;261.58;127.50;;;9.00;99.90;;;;;;5009230;28;20052;-69
2022/03/26 07:30:08;;;;;;;259.98;128.05;;;9.30;99.90;;;;;;5020112;28;20488;-69
2022/03/26 07:32:34;;;;;;;242.50;116.95;;;9.60;99.90;;;;;;5008589;28;20088;-69
2022/03/26 07:35:02;;;;;;;243.07;113.50;;;9.90;99.90;;;;;;5011384;28;20479;-69
2022/03/26 07:37:27;;;;;;;216.20;108.13;;;10.20;99.90;;;;;;5006094;28;20549;-69
2022/03/26 07:39:53;;;;;;;214.02;96.43;;;10.40;99.90;;;;;;5007417;28;20042;-69
2022/03/26 07:42:19;;;;;;;204.65;98.70;;;10.60;99.90;;;;;;5008011;28;20093;-69
2022/03/26 07:44:44;;;;;;;186.50;92.03;;;11.00;99.90;;;;;;5012588;28;20041;-69
2022/03/26 07:47:11;;;;;;;190.27;96.38;;;11.30;99.90;;;;;;5014362;28;20541;-69
2022/03/26 07:49:36;;;;;;;198.77;91.78;;;11.50;99.90;;;;;;5005237;28;20058;-68
2022/03/26 07:52:03;;;;;;;184.27;86.68;;;11.70;99.90;;;;;;5013829;28;20040;-69
2022/03/26 07:54:28;;;;;;;180.23;85.45;;;12.00;99.90;;;;;;5015406;28;20037;-69
2022/03/26 07:56:54;;;;;;;159.20;81.30;;;12.20;99.90;;;;;;5006752;28;20096;-69
2022/03/26 07:59:19;;;;;;;152.23;78.35;;;12.40;99.90;;;;;;5009452;28;20118;-69
2022/03/26 08:01:45;;;;;;;155.48;75.70;;;12.70;99.90;;;;;;5009661;28;20084;-70
2022/03/26 08:04:11;;;;;;;168.82;78.22;;;12.80;99.90;;;;;;5007123;28;20667;-69
2022/03/26 08:06:36;;;;;;;155.63;75.32;;;13.10;99.90;;;;;;5007492;28;20049;-69
2022/03/26 08:09:03;;;;;;;148.25;72.30;;;13.30;99.90;;;;;;5019355;28;20080;-69
2022/03/26 08:11:28;;;;;;;157.65;76.65;;;13.40;99.90;;;;;;5012944;28;20081;-69
2022/03/26 08:13:55;;;;;;;152.45;72.13;;;13.70;99.90;;;;;;5021181;28;20788;-68
2022/03/26 08:16:21;;;;;;;142.95;68.78;;;13.80;99.90;;;;;;5006659;28;20050;-69
2022/03/26 08:18:46;;;;;;;139.73;73.25;;;14.00;99.90;;;;;;5011529;28;20403;-69
2022/03/26 08:21:15;;;;;;;140.27;69.65;;;14.20;99.90;;;;;;5018765;28;20046;-69
2022/03/26 08:23:40;;;;;;;;;;;14.30;99.90;;;;;;5010205;28;20053;-70
2022/03/26 08:26:20;;;;;;;132.90;65.57;;;14.40;94.40;;;;;;5002064;28;19929;-71
2022/03/26 08:28:46;;;;;;;135.98;63.55;;;14.40;99.90;;;;;;5011073;28;20092;-70
2022/03/26 08:31:13;;;;;;;112.38;55.33;;;14.60;96.10;;;;;;5008398;28;20052;-70
2022/03/26 08:33:40;;;;;;;111.13;55.70;;;14.70;93.70;;;;;;5014106;28;20077;-69
2022/03/26 08:36:06;;;;;;;112.60;54.55;;;14.80;90.40;;;;;;4995396;28;20093;-69
2022/03/26 08:38:32;;;;;;;116.97;54.80;;;15.00;91.00;;;;;;5003419;28;20559;-69
2022/03/26 08:40:58;;;;;;;106.60;49.40;;;15.10;87.90;;;;;;5002992;28;20054;-69
2022/03/26 08:43:24;;;;;;;117.82;54.03;;;15.20;86.50;;;;;;5004003;28;20076;-69
2022/03/26 08:45:50;;;;;;;99.72;50.65;;;15.20;85.30;;;;;;5009204;28;20475;-70
2022/03/26 08:48:17;;;;;;;108.43;54.58;;;15.30;83.50;;;;;;5004209;28;20077;-68
2022/03/26 08:50:43;;;;;;;134.27;55.15;;;15.30;80.90;;;;;;5011853;28;20415;-68
2022/03/26 08:53:10;;;;;;;113.15;54.30;;;15.40;82.50;;;;;;5007961;28;20569;-68
2022/03/26 08:55:35;;;;;;;117.22;56.70;;;15.50;81.70;;;;;;5013607;28;20051;-68
2022/03/26 08:58:02;;;;;;;109.90;55.20;;;15.50;79.80;;;;;;5011340;28;20046;-68
2022/03/26 09:00:28;;;;;;;111.00;56.83;;;15.60;81.90;;;;;;5008663;28;20049;-68
2022/03/26 09:02:56;;;;;;;125.68;61.13;;;15.80;83.40;;;;;;5019854;28;20559;-68
2022/03/26 09:05:22;;;;;;;132.65;63.42;;;16.00;79.00;;;;;;5001583;28;20042;-68
2022/03/26 09:07:48;;;;;;;127.03;63.50;;;16.00;82.70;;;;;;5001578;28;20478;-68
2022/03/26 09:10:14;;;;;;;112.70;57.95;;;16.30;82.60;;;;;;5012637;28;20429;-69
2022/03/26 09:12:39;;;;;;;108.07;57.45;;;16.50;83.30;;;;;;5016374;28;20053;-68
2022/03/26 09:15:07;;;;;;;87.95;50.88;;;16.60;82.50;;;;;;5014335;28;20081;-69
2022/03/26 09:17:36;;;;;;;113.07;59.88;;;16.70;82.90;;;;;;5008345;28;20041;-69
2022/03/26 09:20:04;;;;;;;107.45;57.92;;;16.60;80.40;;;;;;5020438;28;20094;-70
2022/03/26 09:22:30;;;;;;;93.53;53.42;;;16.80;82.70;;;;;;5010863;28;20382;-69
2022/03/26 09:24:55;;;;;;;96.82;50.83;;;17.00;83.10;;;;;;5021358;28;20049;-69
2022/03/26 09:27:21;;;;;;;89.75;49.90;;;17.10;83.00;;;;;;5009014;28;20046;-69
2022/03/26 09:29:48;;;;;;;70.93;44.70;;;17.30;83.10;;;;;;5016025;28;20372;-69
2022/03/26 09:32:13;;;;;;;72.40;43.30;;;17.50;84.00;;;;;;5012093;28;20469;-68
2022/03/26 09:34:39;;;;;;;68.47;37.97;;;17.50;81.90;;;;;;5015631;28;20037;-68
2022/03/26 09:37:05;;;;;;;77.93;46.22;;;17.70;82.30;;;;;;5016709;28;20050;-68
2022/03/26 09:39:31;;;;;;;73.72;43.22;;;17.70;81.40;;;;;;5013042;28;20477;-69
2022/03/26 09:41:58;;;;;;;73.18;44.17;;;17.80;82.70;;;;;;5015382;28;20060;-68
2022/03/26 09:44:24;;;;;;;76.45;42.50;;;18.10;81.90;;;;;;5018361;28;20034;-69
2022/03/26 09:46:50;;;;;;;80.32;44.95;;;18.20;81.30;;;;;;5014434;28;20080;-69
2022/03/26 09:49:16;;;;;;;76.38;42.90;;;18.20;80.60;;;;;;5014558;28;20038;-69
2022/03/26 09:51:42;;;;;;;68.28;43.55;;;18.20;80.60;;;;;;5017259;28;20097;-69
2022/03/26 09:54:12;;;;;;;69.70;38.00;;;18.30;80.80;;;;;;5019347;28;20069;-69
2022/03/26 09:56:38;;;;;;;59.97;35.30;;;18.40;79.50;;;;;;5010642;28;20065;-69
2022/03/26 09:59:04;;;;;;;59.92;36.38;;;18.60;78.30;;;;;;5010872;28;20034;-69
2022/03/26 10:01:30;;;;;;;47.13;28.48;;;18.70;77.00;;;;;;5010504;28;20045;-69
2022/03/26 10:04:10;;;;;;;47.50;28.40;;;18.60;76.00;;;;;;5017020;28;20037;-69
2022/03/26 10:06:37;;;;;;;50.85;30.30;;;18.50;70.20;;;;;;5006518;28;20164;-69
2022/03/26 10:09:03;;;;;;;52.38;32.28;;;18.60;73.10;;;;;;5015429;28;20051;-69
2022/03/26 10:11:33;;;;;;;53.28;28.63;;;18.60;73.60;;;;;;5012504;28;20591;-69
2022/03/26 10:13:59;;;;;;;53.00;29.30;;;18.50;72.50;;;;;;5013746;28;20049;-69
2022/03/26 10:16:26;;;;;;;46.42;29.77;;;18.70;71.30;;;;;;5019257;28;20116;-69
2022/03/26 10:18:52;;;;;;;41.50;25.52;;;18.60;70.30;;;;;;5012222;28;20054;-68
2022/03/26 10:21:20;;;;;;;49.97;27.77;;;18.70;71.00;;;;;;5011682;28;20034;-69
2022/03/26 10:23:51;;;;;;;57.05;29.08;;;19.00;70.70;;;;;;5014900;28;20050;-69
2022/03/26 10:26:23;;;;;;;51.63;29.95;;;18.90;69.60;;;;;;5016067;28;20168;-69
2022/03/26 10:28:56;;;;;;;47.13;29.75;;;19.10;69.50;;;;;;5007993;28;20033;-69
2022/03/26 10:34:13;;;;;;;49.03;25.83;;;19.30;69.10;;;;;;5007536;28;20058;-69
2022/03/26 10:36:41;;;;;;;48.15;28.35;;;19.50;68.30;;;;;;5009287;28;20046;-69
2022/03/26 10:39:20;;;;;;;39.33;22.60;;;19.30;67.80;;;;;;5004288;28;20049;-69
2022/03/26 10:41:48;;;;;;;44.22;29.10;;;19.40;66.50;;;;;;5011040;28;20128;-69
2022/03/26 10:44:16;;;;;;;52.47;28.93;;;19.40;66.70;;;;;;5010740;28;20531;-69
2022/03/26 10:46:45;;;;;;;;;;;19.30;64.80;;;;;;5006404;28;20754;-70
2022/03/26 10:49:13;;;;;;;47.67;26.30;;;19.30;64.40;;;;;;4991942;28;19956;-69
2022/03/26 10:51:41;;;;;;;38.75;25.05;;;19.40;66.10;;;;;;5002184;28;20132;-68
2022/03/26 10:54:13;;;;;;;47.80;27.45;;;19.40;65.90;;;;;;5008964;28;20454;-68
2022/03/26 10:56:40;;;;;;;40.50;25.33;;;19.50;65.00;;;;;;5007781;28;20156;-68
2022/03/26 10:59:06;;;;;;;41.53;24.90;;;19.60;66.00;;;;;;5014768;28;20092;-69
2022/03/26 11:01:32;;;;;;;39.00;26.60;;;19.60;65.50;;;;;;5009211;28;20367;-69
2022/03/26 11:03:58;;;;;;;50.00;28.88;;;19.60;65.70;;;;;;5009378;28;20050;-69
2022/03/26 11:06:27;;;;;;;39.95;27.13;;;19.50;65.60;;;;;;5005595;28;20079;-69
2022/03/26 11:09:01;;;;;;;43.67;27.13;;;19.40;63.20;;;;;;4982752;28;20069;-69
2022/03/26 11:11:28;;;;;;;46.13;28.65;;;19.60;65.20;;;;;;5009083;28;20519;-69
2022/03/26 11:14:00;;;;;;;43.67;29.25;;;19.60;65.20;;;;;;5011027;28;20045;-69
2022/03/26 11:16:41;;;;;;;46.15;25.92;;;19.60;65.60;;;;;;5003282;28;20121;-69
2022/03/26 11:19:15;;;;;;;39.72;24.02;;;19.90;63.30;;;;;;5009324;28;20058;-70
2022/03/26 11:22:10;;;;;;;41.17;24.63;;;19.80;64.80;;;;;;4999737;28;20044;-69
2022/03/26 11:24:43;;;;;;;46.35;25.02;;;19.90;64.20;;;;;;5001041;28;20099;-69
2022/03/26 11:27:46;;;;;;;39.78;25.77;;;19.80;65.60;;;;;;5010310;28;20052;-69
2022/03/26 11:30:19;;;;;;;40.35;24.50;;;19.70;61.60;;;;;;5009295;28;20038;-69
2022/03/26 11:32:45;;;;;;;37.35;24.85;;;19.90;64.50;;;;;;5013908;28;20046;-69
2022/03/26 11:35:16;;;;;;;33.83;23.42;;;19.90;63.90;;;;;;5022340;28;20120;-70
2022/03/26 11:38:02;;;;;;;35.10;22.00;;;19.90;64.70;;;;;;5018554;28;20084;-69
2022/03/26 11:40:40;;;;;;;34.78;20.27;;;20.00;62.80;;;;;;4989684;28;20479;-70
2022/03/26 11:43:05;;;;;;;33.63;17.77;;;20.10;62.80;;;;;;5005061;28;20503;-70
2022/03/26 11:51:20;;;;;;;35.25;22.05;;;20.50;63.40;;;;;;4999382;28;20057;-68
2022/03/26 11:53:49;;;;;;;33.13;22.35;;;20.40;63.00;;;;;;5007498;28;20050;-67
2022/03/26 11:56:27;;;;;;;34.65;22.60;;;20.40;61.70;;;;;;5005677;28;20034;-71
2022/03/26 11:59:17;;;;;;;26.73;19.35;;;20.10;62.10;;;;;;5007349;28;20072;-69
2022/03/26 12:01:45;;;;;;;32.65;19.42;;;20.30;61.90;;;;;;5002602;28;20100;-68
2022/03/26 12:04:26;;;;;;;31.55;19.23;;;20.30;62.50;;;;;;5008024;28;20048;-68
2022/03/26 12:06:56;;;;;;;29.50;18.75;;;20.20;61.40;;;;;;5018199;28;20153;-69
2022/03/26 12:09:34;;;;;;;32.00;19.17;;;20.10;61.40;;;;;;5009178;28;20053;-70
2022/03/26 12:12:20;;;;;;;34.45;20.65;;;20.00;61.60;;;;;;5008403;28;20135;-67
2022/03/26 12:15:07;;;;;;;25.35;18.45;;;20.10;62.00;;;;;;5006864;28;20057;-68
2022/03/26 12:17:49;;;;;;;22.50;17.30;;;20.00;61.00;;;;;;5010836;28;20041;-72
2022/03/26 12:20:24;;;;;;;28.08;17.20;;;19.90;61.10;;;;;;5008689;28;20050;-69
2022/03/26 12:23:11;;;;;;;23.30;16.55;;;19.70;61.40;;;;;;5007870;28;20161;-68
2022/03/26 12:25:50;;;;;;;21.40;16.08;;;19.90;62.90;;;;;;5008545;28;20060;-68
2022/03/26 12:28:31;;;;;;;19.23;14.10;;;19.80;62.00;;;;;;5007817;28;20459;-69
2022/03/26 12:31:04;;;;;;;23.00;15.23;;;19.60;61.90;;;;;;5012561;28;20491;-69
2022/03/26 12:33:43;;;;;;;22.20;15.38;;;19.40;62.60;;;;;;5011991;28;20120;-68
2022/03/26 12:36:09;;;;;;;20.27;14.35;;;19.30;62.00;;;;;;5008553;28;20053;-67